• Join FlightAware (Why Join?)
  • Login
  • US Flag 
06:31PM EDT


 

Airport Tracker/Info


-or-


 

Live Flight TrackerFlight Track Log ✈ AAL1209 ✈ 27-Apr-2012 ✈ KDFW - KSMF

Flight Track Log - Related Links

Times and Time Zones

All times are in EDT time to prevent confusion due to time zone crossing. See the AAL1209 flight status page for this flight to view local times or setup timezone preferences in your user account.

Time Position Orientation Groundspeed Altitude Reporting Facility
EDT Latitude Longitude Course Direction KTS MPH feet Rate Location/Type
10:55AM 32.8724 -97.0361 204° Southwest  Level FlightAware Approximate
10:56AM 32.7756 -97.0667 North  Level FlightAware Approximate
10:57AM 32.8289 -97.0589 200° South 201 231 3,100  Level FAA TRACON SMA TRACON (SMA)
10:57AM 32.7936 -97.0739 227° Southwest 221 254 4,400 2,220 Climbing FAA TRACON SMA TRACON (SMA)
10:58AM 32.7700 -97.1044 264° West 223 257 5,900 2,100 Climbing FAA TRACON SMA TRACON (SMA)
10:59AM 32.7650 -97.1572 274° West 236 272 7,200 1,920 Climbing FAA TRACON SMA TRACON (SMA)
10:59AM 32.7686 -97.2158 286° West 258 297 8,600 1,800 Climbing FAA TRACON SMA TRACON (SMA)
11:00AM 32.7811 -97.2683 299° West 274 315 9,700 1,500 Climbing FAA TRACON SMA TRACON (SMA)
11:01AM 32.8092 -97.3278 296° West 299 344 10,600 1,380 Climbing FAA TRACON SMA TRACON (SMA)
11:01AM 32.8369 -97.3967 297° West 335 386 11,600 1,620 Climbing FAA TRACON SMA TRACON (SMA)
11:02AM 32.8647 -97.4617 298° West 357 411 12,800 1,980 Climbing FAA TRACON SMA TRACON (SMA)
11:03AM 32.8978 -97.5350 296° West 365 420 14,300 2,100 Climbing FAA TRACON SMA TRACON (SMA)
11:03AM 32.9300 -97.6125 297° West 379 436 15,600 2,400 Climbing FAA TRACON SMA TRACON (SMA)
11:04AM 32.9628 -97.6889 289° West 373 429 17,700 2,640 Climbing FAA TRACON SMA TRACON (SMA)
11:05AM 32.9922 -97.7900 280° West 347 399 20,000 2,220 Climbing FAA TRACON SMA TRACON (SMA)
11:06AM 33.0042 -97.8692 281° West 351 404 21,300 1,560 Climbing FAA TRACON SMA TRACON (SMA)
11:06AM 33.0156 -97.9386 280° West 348 400 22,100 1,080 Climbing FAA TRACON SMA TRACON (SMA)
11:07AM 33.0278 -98.0206 281° West 365 420 22,800 1,200 Climbing FAA TRACON SMA TRACON (SMA)
11:08AM 33.0414 -98.1053 280° West 377 434 23,700 1,260 Climbing FAA TRACON SMA TRACON (SMA)
11:08AM 33.0528 -98.1819 278° West 382 440 24,500 1,140 Climbing FAA TRACON SMA TRACON (SMA)
11:09AM 33.0661 -98.2983 281° West 391 450 25,500 1,020 Climbing Fort Worth Center
11:10AM 33.0881 -98.4300 281° West 401 461 26,500 1,200 Climbing Fort Worth Center
11:11AM 33.1058 -98.5442 279° West 401 461 27,900 1,500 Climbing Fort Worth Center
11:12AM 33.1233 -98.6736 281° West 396 456 29,500 1,020 Climbing Fort Worth Center
11:13AM 33.1431 -98.7978 281° West 390 449 30,000 240 Climbing Fort Worth Center
11:14AM 33.1644 -98.9272 279° West 390 449 30,000  Level Fort Worth Center
11:15AM 33.1817 -99.0567 298° West 390 449 30,000  Level Fort Worth Center
11:16AM 33.2342 -99.1767 301° West 390 449 30,000  Level Fort Worth Center
11:17AM 33.2911 -99.2897 299° West 390 449 30,000  Level Fort Worth Center
11:18AM 33.3456 -99.4053 299° West 401 461 30,000  Level Fort Worth Center
11:19AM 33.4000 -99.5233 299° West 401 461 30,100 600 Climbing Fort Worth Center
11:20AM 33.4522 -99.6367 299° West 401 461 31,300 900 Climbing Fort Worth Center
11:21AM 33.5044 -99.7478 299° West 401 461 32,000 300 Climbing Fort Worth Center
11:22AM 33.5567 -99.8611 298° West 396 456 32,000  Level Fort Worth Center
11:23AM 33.6067 -99.9747 299° West 396 456 32,000  Level Fort Worth Center
11:24AM 33.6583 -100.0886 299° West 396 456 32,000  Level Fort Worth Center
11:25AM 33.7103 -100.2000 300° West 396 456 32,000  Level Fort Worth Center
11:26AM 33.7642 -100.3117 298° West 396 456 32,100  Climbing Fort Worth Center
11:27AM 33.8136 -100.4258 298° West 396 456 32,000 -60 Descending Fort Worth Center
11:28AM 33.8650 -100.5403 298° West 396 456 32,000  Level Fort Worth Center
11:29AM 33.9164 -100.6547 300° West 396 456 32,000  Level Fort Worth Center
11:30AM 33.9678 -100.7642 298° West 396 456 32,000  Level Fort Worth Center
11:31AM 34.0169 -100.8764 298° West 390 449 32,000  Level Fort Worth Center
11:34AM 34.1428 -101.1608 298° West 382 440 32,100  Climbing Albuquerque Center
11:35AM 34.1925 -101.2753 298° West 382 440 32,000 -60 Descending Albuquerque Center
11:36AM 34.2419 -101.3869 298° West 382 440 32,000  Level Albuquerque Center
11:37AM 34.2914 -101.4992 297° West 382 440 32,100  Climbing Albuquerque Center
11:38AM 34.3339 -101.5992 297° West 382 440 32,000 -60 Descending Albuquerque Center
11:39AM 34.3831 -101.7142 297° West 382 440 32,000  Level Albuquerque Center
11:40AM 34.4322 -101.8289 298° West 382 440 32,000  Level Albuquerque Center
11:41AM 34.4811 -101.9392 298° West 377 434 32,100  Climbing Albuquerque Center
11:42AM 34.5297 -102.0494 296° West 377 434 32,000 -60 Descending Albuquerque Center
11:43AM 34.5767 -102.1647 298° West 377 434 32,000  Level Albuquerque Center
11:44AM 34.6253 -102.2778 298° West 377 434 32,000  Level Albuquerque Center
11:45AM 34.6739 -102.3911 297° West 377 434 32,000  Level Albuquerque Center
11:46AM 34.7203 -102.5019 298° West 377 434 32,100  Climbing Albuquerque Center
11:47AM 34.7706 -102.6153 298° West 377 434 32,000  Descending Albuquerque Center
11:48AM 34.8233 -102.7386 297° West 383 441 32,100  Climbing Albuquerque Center
11:49AM 34.8694 -102.8500 297° West 378 435 32,100  Level Albuquerque Center
11:50AM 34.9175 -102.9639 298° West 378 435 32,100 -60 Level Albuquerque Center
11:51AM 34.9653 -103.0753 298° West 378 435 32,000 -60 Descending Albuquerque Center
11:52AM 35.0108 -103.1819 297° West 378 435 32,000  Level Albuquerque Center
11:53AM 35.0586 -103.2986 297° West 378 435 32,100  Climbing Albuquerque Center
11:54AM 35.1042 -103.4081 297° West 378 435 32,000 -60 Descending Albuquerque Center
11:55AM 35.1517 -103.5203 295° West 378 435 32,000  Level Albuquerque Center
11:56AM 35.1903 -103.6200 290° West 378 435 32,000  Level Albuquerque Center
11:57AM 35.2250 -103.7353 292° West 373 429 32,000  Level Albuquerque Center
11:58AM 35.2639 -103.8531 287° West 368 423 32,100  Climbing Albuquerque Center
11:59AM 35.2925 -103.9714 297° West 363 418 32,000 -60 Descending Albuquerque Center
12:00PM 35.3394 -104.0867 290° West 368 423 32,000  Level Albuquerque Center
12:01PM 35.3761 -104.2100 291° West 374 430 32,000  Level Albuquerque Center
12:02PM 35.4125 -104.3283 290° West 374 430 32,100  Climbing Albuquerque Center
12:03PM 35.4489 -104.4494 291° West 374 430 32,000 -60 Descending Albuquerque Center
12:04PM 35.4853 -104.5681 291° West 379 436 32,000  Level Albuquerque Center
12:05PM 35.5214 -104.6867 290° West 379 436 32,000  Level Albuquerque Center
12:06PM 35.5572 -104.8056 290° West 379 436 32,000  Level Albuquerque Center
12:07PM 35.5931 -104.9244 290° West 374 430 32,000  Level Albuquerque Center
12:08PM 35.6289 -105.0433 291° West 374 430 32,100  Climbing Albuquerque Center
12:09PM 35.6667 -105.1625 290° West 374 430 32,000 -60 Descending Albuquerque Center
12:10PM 35.7064 -105.2944 290° West 379 436 32,000  Level Albuquerque Center
12:11PM 35.7419 -105.4164 289° West 379 436 32,000  Level Albuquerque Center
12:12PM 35.7772 -105.5408 293° West 389 448 32,000  Level Albuquerque Center
12:13PM 35.8122 -105.6450 289° West 384 442 32,000  Level Albuquerque Center
12:14PM 35.8450 -105.7622 291° West 364 419 32,000  Level Albuquerque Center
12:15PM 35.8822 -105.8844 290° West 374 430 32,000  Level Albuquerque Center
12:16PM 35.9169 -106.0044 289° West 374 430 32,000  Level Albuquerque Center
12:17PM 35.9494 -106.1219 290° West 369 425 32,000  Level Albuquerque Center
12:18PM 35.9842 -106.2394 291° West 369 425 32,000  Level Albuquerque Center
12:19PM 36.0206 -106.3597 290° West 369 425 32,000  Level Albuquerque Center
12:20PM 36.0550 -106.4775 289° West 362 417 32,000  Level Albuquerque Center
12:21PM 36.0914 -106.6106 291° West 368 423 32,100  Climbing Albuquerque Center
12:22PM 36.1275 -106.7286 289° West 368 423 32,000 -60 Descending Albuquerque Center
12:23PM 36.1931 -106.9686 290° West 358 412 32,000  Level Denver Center
12:24PM 36.2236 -107.0717 289° West 364 419 32,100  Climbing Denver Center
12:25PM 36.2603 -107.2033 289° West 369 425 32,100 -60 Level Denver Center
12:26PM 36.2950 -107.3272 289° West 374 430 32,000  Descending Denver Center
12:27PM 36.3253 -107.4356 288° West 374 430 32,100  Climbing Denver Center
12:28PM 36.3575 -107.5569 288° West 374 430 32,100 -60 Level Denver Center
12:29PM 36.3936 -107.6917 290° West 374 430 32,000 -60 Descending Denver Center
12:30PM 36.4297 -107.8133 289° West 374 430 32,000  Level Denver Center
12:31PM 36.4597 -107.9222 289° West 368 423 32,100  Climbing Denver Center
12:32PM 36.4933 -108.0467 289° West 373 429 32,000 -60 Descending Denver Center
12:33PM 36.5289 -108.1792 289° West 368 423 32,000  Level Denver Center
12:34PM 36.5625 -108.3011 287° West 368 423 32,000  Level Denver Center
12:35PM 36.5900 -108.4103 288° West 368 423 32,100  Climbing Denver Center
12:36PM 36.6250 -108.5431 290° West 368 423 32,000  Descending Denver Center
12:37PM 36.6603 -108.6656 288° West 368 423 32,100  Climbing Denver Center
12:38PM 36.6911 -108.7856 288° West 368 423 32,100  Level Denver Center
12:39PM 36.7200 -108.8978 287° West 368 423 32,100 -60 Level Denver Center
12:40PM 36.7525 -109.0308 288° West 368 423 32,000 -60 Descending Denver Center
12:41PM 36.7853 -109.1539 288° West 368 423 32,000  Level Denver Center
12:42PM 36.8139 -109.2636 288° West 368 423 32,100  Climbing Denver Center
12:43PM 36.8500 -109.4000 288° West 368 423 32,100 -60 Level Denver Center
12:44PM 36.8803 -109.5178 286° West 368 423 32,000 -60 Descending Denver Center
12:45PM 36.9100 -109.6436 289° West 368 423 32,000  Level Denver Center
12:46PM 36.9383 -109.7486 286° West 368 423 32,100  Climbing Denver Center
12:47PM 36.9697 -109.8825 288° West 368 423 32,000  Descending Denver Center
12:48PM 37.0014 -110.0036 292° West 368 423 32,100  Climbing Denver Center
12:49PM 37.0394 -110.1225 289° West 368 423 32,000  Descending Denver Center
12:50PM 37.0675 -110.2228 290° West 363 418 32,100  Climbing Denver Center
12:51PM 37.1031 -110.3442 292° West 363 418 32,100 -60 Level Denver Center
12:52PM 37.1406 -110.4608 290° West 363 418 32,000  Descending Denver Center
12:53PM 37.1758 -110.5825 293° West 368 423 32,100  Climbing Denver Center
12:54PM 37.2153 -110.7019 290° West 368 423 32,000  Descending Denver Center
12:55PM 37.2503 -110.8239 292° West 373 429 32,100  Climbing Denver Center
12:56PM 37.2931 -110.9569 289° West 373 429 32,000 -60 Descending Denver Center
12:57PM 37.3258 -111.0764 291° West 373 429 32,000  Level Denver Center
12:59PM 37.3786 -111.2475 291° West 371 427 32,100  Climbing Salt Lake Center
01:00PM 37.4161 -111.3725 290° West 374 430 32,100 -60 Level Salt Lake Center
01:01PM 37.4536 -111.5003 290° West 380 437 32,000  Descending Salt Lake Center
01:02PM 37.4908 -111.6272 290° West 382 440 32,100  Climbing Salt Lake Center
01:03PM 37.5356 -111.7794 291° West 380 437 32,100 -60 Level Salt Lake Center
01:04PM 37.5739 -111.9081 290° West 384 442 32,000 -60 Descending Salt Lake Center
01:05PM 37.6111 -112.0364 290° West 385 443 32,000  Level Salt Lake Center
01:06PM 37.6483 -112.1647 290° West 385 443 32,100  Climbing Salt Lake Center
01:07PM 37.6861 -112.2939 290° West 387 445 32,100 -60 Level Salt Lake Center
01:08PM 37.7231 -112.4228 289° West 387 445 32,000 -60 Descending Salt Lake Center
01:09PM 37.7581 -112.5522 290° West 387 445 32,000  Level Salt Lake Center
01:10PM 37.7939 -112.6797 290° West 386 444 32,100  Climbing Salt Lake Center
01:11PM 37.8294 -112.8069 289° West 384 442 32,000 -60 Descending Salt Lake Center
01:12PM 37.8636 -112.9333 289° West 382 440 32,000  Level Salt Lake Center
01:13PM 37.8986 -113.0603 289° West 380 437 32,000  Level Salt Lake Center
01:14PM 37.9397 -113.2150 289° West 382 440 32,100  Climbing Salt Lake Center
01:15PM 37.9747 -113.3433 289° West 382 440 32,000  Descending Salt Lake Center
01:16PM 38.0083 -113.4706 286° West 378 435 32,100  Climbing Salt Lake Center
01:17PM 38.0375 -113.6011 283° West 379 436 32,100 -60 Level Salt Lake Center
01:18PM 38.0619 -113.7311 284° West 376 433 32,000  Descending Salt Lake Center
01:20PM 38.0886 -113.8636 284° West 379 436 32,100  Climbing Salt Lake Center
01:23PM 38.1672 -114.2556 284° West 377 434 32,000 -60 Descending Salt Lake Center
01:24PM 38.1939 -114.3878 284° West 379 436 32,000  Level Salt Lake Center
01:25PM 38.2192 -114.5197 284° West 379 436 32,000  Level Salt Lake Center
01:26PM 38.2439 -114.6478 284° West 372 428 32,100  Climbing Salt Lake Center
01:27PM 38.2686 -114.7764 284° West 369 425 32,000 -60 Descending Salt Lake Center
01:28PM 38.2931 -114.9039 283° West 366 421 32,000  Level Salt Lake Center
01:29PM 38.3169 -115.0336 283° West 370 426 32,000  Level Salt Lake Center
01:30PM 38.3419 -115.1669 284° West 378 435 32,100  Climbing Salt Lake Center
01:31PM 38.3681 -115.2989 282° West 379 436 32,000 -60 Descending Salt Lake Center
01:32PM 38.3933 -115.4511 284° West 380 437 32,000  Level Salt Lake Center
01:33PM 38.4189 -115.5825 284° West 379 436 32,000  Level Salt Lake Center
01:34PM 38.4436 -115.7133 283° West 380 437 32,100  Climbing Salt Lake Center
01:35PM 38.4678 -115.8444 282° West 380 437 32,000 -60 Descending Salt Lake Center
01:36PM 38.4906 -115.9775 283° West 383 441 32,000  Level Salt Lake Center
01:37PM 38.5189 -116.1353 283° West 381 438 32,000  Level Salt Lake Center
01:38PM 38.5436 -116.2683 282° West 384 442 32,000  Level Salt Lake Center
01:39PM 38.5664 -116.4017 283° West 386 444 32,000  Level Salt Lake Center
01:40PM 38.5903 -116.5344 283° West 385 443 32,100  Climbing Salt Lake Center
01:41PM 38.6139 -116.6692 282° West 388 447 32,100 -60 Level Salt Lake Center
01:42PM 38.6369 -116.8033 283° West 389 448 32,000 -60 Descending Salt Lake Center
01:43PM 38.6647 -116.9625 282° West 386 444 32,000  Level Salt Lake Center
01:44PM 38.6875 -117.0958 282° West 386 444 32,000  Level Salt Lake Center
01:45PM 38.7097 -117.2281 282° West 384 442 32,000  Level Salt Lake Center
01:46PM 38.7325 -117.3603 282° West 383 441 32,000  Level Salt Lake Center
01:47PM 38.7542 -117.4919 282° West 381 438 32,000  Level Salt Lake Center
01:48PM 38.7758 -117.6225 282° West 378 435 32,000  Level Salt Lake Center
01:49PM 38.8019 -117.7811 282° West 378 435 32,000  Level Salt Lake Center
01:50PM 38.8231 -117.9119 281° West 378 435 32,000  Level Salt Lake Center
01:51PM 38.8436 -118.0425 282° West 375 432 32,000  Level Salt Lake Center
01:53PM 38.8656 -118.1733 281° West 375 432 32,000  Level Salt Lake Center
01:54PM 38.8861 -118.3050 282° West 376 433 32,000 -60 Level Salt Lake Center
01:55PM 38.9111 -118.4622 281° West 375 432 31,900 -540 Descending Salt Lake Center
01:56PM 38.9281 -118.5731 281° West 374 430 31,000 -840 Descending Salt Lake Center
01:57PM 38.9558 -118.7569 282° West 384 442 30,100 -480 Descending Oakland Center
01:58PM 38.9769 -118.8872 280° West 379 436 30,000 -420 Descending Oakland Center
01:59PM 38.9961 -119.0231 282° West 379 436 29,300 -900 Descending Oakland Center
02:00PM 39.0169 -119.1533 280° West 379 436 28,300 -900 Descending Oakland Center
02:01PM 39.0356 -119.2892 281° West 379 436 27,500 -900 Descending Oakland Center
02:02PM 39.0561 -119.4250 281° West 390 449 26,500 -900 Descending Oakland Center
02:03PM 39.0744 -119.5478 281° West 390 449 25,700 -960 Descending Oakland Center
02:04PM 39.0947 -119.6864 282° West 390 449 24,700 -1,020 Descending Oakland Center
02:05PM 39.1169 -119.8225 280° West 390 449 23,700 -1,020 Descending Oakland Center
02:06PM 39.1350 -119.9589 260° West 390 449 22,700 -960 Descending Oakland Center
02:07PM 39.1153 -120.0956 263° West 377 434 21,800 -1,380 Descending Oakland Center
02:08PM 39.1017 -120.2483 260° West 389 448 20,000 -1,920 Descending Oakland Center
02:09PM 39.0817 -120.3875 260° West 394 453 18,000 -1,800 Descending Oakland Center
02:10PM 39.0633 -120.5214 261° West 394 453 16,400 -960 Descending Oakland Center
02:11PM 39.0472 -120.6525 259° West 389 448 16,100 -600 Descending Oakland Center
02:12PM 39.0267 -120.7836 261° West 383 441 15,300 -1,260 Descending Oakland Center
02:13PM 39.0100 -120.9119 258° West 377 434 13,600 -1,740 Descending Oakland Center
02:14PM 38.9892 -121.0403 252° West 372 428 11,800 -1,740 Descending Oakland Center
02:15PM 38.9578 -121.1631 250° West 366 421 10,200 -960 Descending Oakland Center
02:16PM 38.9242 -121.2831 251° West 366 421 10,000 -660 Descending Oakland Center
02:17PM 38.8967 -121.3844 262° West 340 391 8,900 -1,440 Descending Oakland Center
02:18PM 38.8861 -121.4750 268° West 307 353 7,200 -1,800 Descending Oakland Center
02:19PM 38.8833 -121.5736 265° West 289 333 5,400 -1,140 Descending Oakland Center
02:20PM 38.8767 -121.6669 199° South 284 327 5,000 -540 Descending Oakland Center
02:21PM 38.8000 -121.7000 189° South 267 307 4,300 -900 Descending Northern Cal TRACON
02:22PM 38.7167 -121.7167 180° South 269 310 3,100 -600 Descending Northern Cal TRACON
02:23PM 38.6500 -121.7167 180° South 257 296 3,200 60 Climbing Northern Cal TRACON